Time;durP1;ratioP1;P1;durP2;ratioP2;P2;SDS_P1;SDS_P2;PMS_P1;PMS_P2;Temp;Humidity;BMP_temperature;BMP_pressure;BME280_temperature;BME280_humidity;BME280_pressure;Samples;Min_cycle;Max_cycle;Signal;HPM_P1;HPM_P2
2022/10/17 00:00:19;;;;;;;7.97;6.88;;;15.10;99.90;;;;;;5011070;28;20033;-64
2022/10/17 00:02:44;;;;;;;9.18;7.00;;;15.10;99.90;;;;;;5014292;28;20029;-64
2022/10/17 00:05:11;;;;;;;8.45;6.97;;;15.10;99.90;;;;;;5014403;28;20490;-64
2022/10/17 00:07:36;;;;;;;9.68;7.45;;;15.10;99.90;;;;;;5010421;28;20042;-64
2022/10/17 00:10:03;;;;;;;7.47;6.78;;;15.10;99.90;;;;;;5016737;28;20504;-64
2022/10/17 00:12:29;;;;;;;9.95;7.07;;;15.10;99.90;;;;;;5011115;28;20509;-64
2022/10/17 00:14:54;;;;;;;8.30;7.50;;;15.20;99.90;;;;;;5014018;28;20037;-64
2022/10/17 00:17:20;;;;;;;9.60;7.88;;;15.20;99.90;;;;;;5016586;28;20053;-64
2022/10/17 00:19:45;;;;;;;9.68;8.32;;;15.20;99.90;;;;;;5015556;28;20068;-64
2022/10/17 00:22:12;;;;;;;9.70;8.18;;;15.20;99.90;;;;;;5010466;28;20026;-64
2022/10/17 00:24:37;;;;;;;8.95;7.60;;;15.20;99.90;;;;;;5013102;28;20542;-64
2022/10/17 00:27:03;;;;;;;10.77;8.45;;;15.20;99.90;;;;;;5011613;28;20097;-64
2022/10/17 00:29:28;;;;;;;9.23;8.13;;;15.10;99.90;;;;;;5011711;28;20022;-64
2022/10/17 00:31:55;;;;;;;8.50;7.57;;;15.10;99.90;;;;;;5015155;28;20032;-64
2022/10/17 00:34:21;;;;;;;10.57;8.15;;;15.10;99.90;;;;;;5023552;28;20370;-64
2022/10/17 00:36:47;;;;;;;11.02;9.13;;;15.10;99.90;;;;;;5028563;28;20025;-64
2022/10/17 00:39:13;;;;;;;9.65;8.75;;;15.10;99.90;;;;;;5024547;28;20037;-64
2022/10/17 00:41:38;;;;;;;9.57;8.00;;;15.10;99.90;;;;;;5009794;28;20029;-64
2022/10/17 00:44:26;;;;;;;10.27;7.95;;;15.10;99.90;;;;;;5011666;28;20034;-64
2022/10/17 00:46:52;;;;;;;10.68;8.25;;;15.10;99.90;;;;;;5013421;28;20053;-64
2022/10/17 00:49:18;;;;;;;10.07;8.38;;;15.10;99.90;;;;;;5013019;28;20478;-64
2022/10/17 00:51:53;;;;;;;12.02;8.27;;;15.10;99.90;;;;;;5014966;28;20029;-64
2022/10/17 00:54:23;;;;;;;9.75;8.75;;;15.10;99.90;;;;;;5019732;28;20056;-64
2022/10/17 00:56:49;;;;;;;10.20;8.35;;;15.10;99.90;;;;;;5011757;28;20030;-64
2022/10/17 00:59:17;;;;;;;10.00;9.00;;;15.10;99.90;;;;;;5013063;28;20041;-64
2022/10/17 01:01:52;;;;;;;11.30;8.57;;;15.10;99.90;;;;;;5013379;28;20026;-64
2022/10/17 01:04:18;;;;;;;10.20;9.20;;;15.10;99.90;;;;;;5015404;28;20021;-64
2022/10/17 01:06:44;;;;;;;17.45;8.75;;;15.10;99.90;;;;;;5015955;28;20171;-64
2022/10/17 01:09:09;;;;;;;9.88;8.88;;;15.10;99.90;;;;;;5014610;28;20418;-64
2022/10/17 01:11:51;;;;;;;11.00;8.40;;;15.10;99.90;;;;;;5009709;28;20053;-64
2022/10/17 01:14:33;;;;;;;8.68;7.75;;;15.20;99.90;;;;;;5010298;28;20029;-64
2022/10/17 01:17:03;;;;;;;10.63;8.70;;;15.20;99.90;;;;;;5017570;28;20033;-64
2022/10/17 01:19:43;;;;;;;8.93;7.97;;;15.20;99.90;;;;;;5037810;28;20448;-64
2022/10/17 01:22:26;;;;;;;11.63;9.40;;;15.20;99.90;;;;;;5011880;28;20414;-64
2022/10/17 01:25:15;;;;;;;11.23;8.88;;;15.20;99.90;;;;;;5011046;28;20033;-64
2022/10/17 01:27:46;;;;;;;12.88;9.40;;;15.20;99.90;;;;;;5012593;28;20026;-64
2022/10/17 01:30:42;;;;;;;11.10;9.00;;;15.10;99.90;;;;;;5014204;28;20033;-64
2022/10/17 01:33:13;;;;;;;11.10;9.20;;;15.20;99.90;;;;;;5009631;28;20029;-64
2022/10/17 01:35:47;;;;;;;11.50;9.30;;;15.10;99.90;;;;;;5016642;28;20009;-64
2022/10/17 01:38:20;;;;;;;10.60;9.60;;;15.10;99.90;;;;;;5011326;28;20553;-64
2022/10/17 01:41:09;;;;;;;10.32;9.07;;;15.10;99.90;;;;;;5009307;28;20148;-64
2022/10/17 01:43:44;;;;;;;11.98;9.85;;;15.10;99.90;;;;;;5013530;28;20122;-64
2022/10/17 01:46:16;;;;;;;10.88;9.73;;;15.10;99.90;;;;;;5010637;28;20530;-64
2022/10/17 01:48:45;;;;;;;11.70;9.85;;;15.10;99.90;;;;;;5023448;28;20124;-64
2022/10/17 01:51:21;;;;;;;9.73;8.80;;;15.10;99.90;;;;;;5009480;28;20397;-64
2022/10/17 01:53:53;;;;;;;10.77;9.68;;;15.20;99.90;;;;;;5015741;28;20261;-64
2022/10/17 01:56:21;;;;;;;11.60;9.57;;;15.20;99.90;;;;;;5013687;28;20032;-64
2022/10/17 01:58:52;;;;;;;10.52;8.98;;;15.10;99.90;;;;;;5026827;28;20481;-64
2022/10/17 02:01:19;;;;;;;13.52;10.02;;;15.20;99.90;;;;;;5017602;28;20069;-64
2022/10/17 02:03:48;;;;;;;11.32;10.13;;;15.20;99.90;;;;;;5014928;28;20036;-64
2022/10/17 02:06:13;;;;;;;12.23;10.43;;;15.10;99.90;;;;;;5018247;28;20041;-64
2022/10/17 02:08:47;;;;;;;14.05;9.50;;;15.20;99.90;;;;;;5012958;28;20680;-64
2022/10/17 02:11:17;;;;;;;11.00;9.80;;;15.20;99.90;;;;;;5014191;28;20034;-64
2022/10/17 02:14:20;;;;;;;12.40;10.43;;;15.20;99.90;;;;;;5014138;28;20032;-64
2022/10/17 02:16:55;;;;;;;11.07;9.88;;;15.20;99.90;;;;;;5015339;28;20072;-64
2022/10/17 02:19:45;;;;;;;11.90;10.45;;;15.20;99.90;;;;;;5014457;28;20093;-64
2022/10/17 02:22:11;;;;;;;10.57;9.48;;;15.30;99.90;;;;;;5029330;28;20505;-64
2022/10/17 02:25:34;;;;;;;11.48;9.35;;;15.30;99.90;;;;;;5016539;28;20034;-64
2022/10/17 02:28:22;;;;;;;15.05;9.80;;;15.30;99.90;;;;;;4996123;28;20393;-64
2022/10/17 02:30:47;;;;;;;15.30;10.13;;;15.20;99.90;;;;;;4990963;28;20037;-64
2022/10/17 02:33:22;;;;;;;12.75;11.02;;;15.20;99.90;;;;;;5009802;28;20045;-64
2022/10/17 02:35:53;;;;;;;13.35;10.38;;;15.20;99.90;;;;;;5014700;28;20093;-64
2022/10/17 02:38:20;;;;;;;12.60;10.15;;;15.30;99.90;;;;;;5018623;28;20029;-64
2022/10/17 02:40:48;;;;;;;11.68;10.48;;;15.20;99.90;;;;;;5015004;28;20616;-64
2022/10/17 02:43:13;;;;;;;11.85;10.65;;;15.20;99.90;;;;;;5019121;28;20045;-64
2022/10/17 02:45:39;;;;;;;12.15;9.32;;;15.20;99.90;;;;;;5012330;28;20425;-65
2022/10/17 02:48:13;;;;;;;13.98;10.07;;;15.20;99.90;;;;;;5015676;28;20037;-64
2022/10/17 02:51:19;;;;;;;12.32;10.20;;;15.20;99.90;;;;;;5016873;28;20034;-64
2022/10/17 02:54:09;;;;;;;12.88;10.57;;;15.20;99.90;;;;;;5015187;28;20037;-64
2022/10/17 02:56:38;;;;;;;;;;;15.20;99.90;;;;;;5016706;28;20017;-64
2022/10/17 02:59:06;;;;;;;12.73;10.07;;;15.10;99.90;;;;;;5020090;28;19913;-64
2022/10/17 03:01:31;;;;;;;12.02;10.48;;;15.10;99.90;;;;;;5013259;28;20037;-64
2022/10/17 03:04:23;;;;;;;13.38;10.48;;;15.10;99.90;;;;;;5015357;28;20049;-64
2022/10/17 03:06:49;;;;;;;11.68;9.77;;;15.10;99.90;;;;;;5014677;28;20061;-64
2022/10/17 03:09:15;;;;;;;11.57;10.38;;;15.10;99.90;;;;;;5012832;28;20066;-64
2022/10/17 03:11:41;;;;;;;13.18;10.25;;;15.10;99.90;;;;;;5012667;28;20033;-64
2022/10/17 03:14:06;;;;;;;10.45;9.45;;;15.10;99.90;;;;;;5015299;28;20555;-65
2022/10/17 03:16:32;;;;;;;13.15;11.10;;;15.10;99.90;;;;;;5028453;28;20029;-64
2022/10/17 03:18:57;;;;;;;13.52;10.32;;;15.10;99.90;;;;;;5011763;28;20034;-64
2022/10/17 03:21:23;;;;;;;13.15;10.38;;;15.10;99.90;;;;;;5012901;28;20441;-64
2022/10/17 03:23:48;;;;;;;14.80;11.07;;;15.20;99.90;;;;;;5025941;28;20026;-64
2022/10/17 03:26:14;;;;;;;11.95;10.60;;;15.20;99.90;;;;;;5019536;28;20390;-64
2022/10/17 03:28:39;;;;;;;10.95;9.82;;;15.20;99.90;;;;;;5011389;28;20410;-64
2022/10/17 03:31:07;;;;;;;14.80;10.05;;;15.30;99.90;;;;;;5012445;28;20036;-64
2022/10/17 03:33:32;;;;;;;14.35;10.60;;;15.30;99.90;;;;;;5015194;28;20021;-64
2022/10/17 03:35:58;;;;;;;13.35;10.32;;;15.30;99.90;;;;;;5035774;28;20033;-64
2022/10/17 03:38:23;;;;;;;11.57;10.25;;;15.30;99.90;;;;;;5011205;28;20022;-64
2022/10/17 03:40:55;;;;;;;13.80;10.63;;;15.40;99.90;;;;;;5012884;28;20753;-64
2022/10/17 03:43:21;;;;;;;11.40;10.20;;;15.40;99.90;;;;;;5018047;28;20134;-64
2022/10/17 03:45:46;;;;;;;11.65;9.88;;;15.40;99.90;;;;;;5012392;28;20053;-64
2022/10/17 03:48:12;;;;;;;10.50;9.40;;;15.40;99.90;;;;;;5013261;28;20504;-64
2022/10/17 03:50:37;;;;;;;10.57;9.43;;;15.40;99.90;;;;;;5019193;28;20029;-64
2022/10/17 03:53:03;;;;;;;10.98;9.45;;;15.40;99.90;;;;;;5026174;28;20036;-64
2022/10/17 03:55:28;;;;;;;12.05;10.18;;;15.40;99.90;;;;;;5014901;28;20102;-64
2022/10/17 03:57:54;;;;;;;11.07;9.75;;;15.40;99.90;;;;;;5012117;28;20075;-64
2022/10/17 04:00:19;;;;;;;12.40;10.35;;;15.30;99.90;;;;;;5026873;28;20029;-64
2022/10/17 04:02:45;;;;;;;10.80;9.13;;;15.40;99.90;;;;;;5014304;28;20053;-64
2022/10/17 04:05:10;;;;;;;10.52;9.45;;;15.30;99.90;;;;;;5012221;28;20022;-64
2022/10/17 04:07:36;;;;;;;12.60;9.18;;;15.40;99.90;;;;;;5014734;28;20438;-64
2022/10/17 04:10:03;;;;;;;11.27;10.00;;;15.40;99.90;;;;;;5017546;28;20354;-64
2022/10/17 04:12:28;;;;;;;12.20;10.90;;;15.30;99.90;;;;;;5016178;28;20034;-64
2022/10/17 04:14:53;;;;;;;12.05;9.65;;;15.40;99.90;;;;;;5037496;28;20028;-63
2022/10/17 04:17:19;;;;;;;13.40;10.30;;;15.40;99.90;;;;;;5014980;28;20367;-64
2022/10/17 04:19:44;;;;;;;12.15;10.75;;;15.40;99.90;;;;;;5017608;28;20038;-64
2022/10/17 04:22:10;;;;;;;12.57;10.45;;;15.40;99.90;;;;;;5009775;28;20112;-64
2022/10/17 04:24:35;;;;;;;11.95;10.00;;;15.40;99.90;;;;;;5014538;28;20068;-64
2022/10/17 04:27:01;;;;;;;13.30;11.48;;;15.40;99.90;;;;;;5011639;28;20022;-64
2022/10/17 04:29:27;;;;;;;13.23;10.60;;;15.50;99.90;;;;;;5010509;28;20033;-64
2022/10/17 04:31:52;;;;;;;14.13;9.75;;;15.50;99.90;;;;;;5012557;28;20030;-64
2022/10/17 04:34:18;;;;;;;11.55;10.25;;;15.50;99.90;;;;;;5013370;28;20029;-64
2022/10/17 04:36:44;;;;;;;11.60;9.93;;;15.50;99.90;;;;;;5012010;28;20038;-64
2022/10/17 04:39:10;;;;;;;13.68;10.20;;;15.50;99.90;;;;;;5012877;28;20108;-64
2022/10/17 04:41:35;;;;;;;15.32;10.73;;;15.60;99.90;;;;;;5013079;28;20044;-63
2022/10/17 04:44:01;;;;;;;11.45;9.95;;;15.50;99.90;;;;;;5015069;28;20030;-64
2022/10/17 04:46:26;;;;;;;11.32;9.25;;;15.60;99.90;;;;;;5026987;28;20021;-64
2022/10/17 04:48:53;;;;;;;12.25;10.60;;;15.50;99.90;;;;;;5030859;28;20044;-64
2022/10/17 04:51:18;;;;;;;13.00;10.93;;;15.50;99.90;;;;;;5031963;28;20044;-64
2022/10/17 04:53:44;;;;;;;11.80;10.07;;;15.60;99.90;;;;;;5031155;28;20025;-64
2022/10/17 04:56:16;;;;;;;10.38;9.35;;;15.60;99.90;;;;;;5032657;28;20529;-64
2022/10/17 04:58:43;;;;;;;12.18;9.15;;;15.70;99.90;;;;;;5032519;28;20044;-64
2022/10/17 05:01:13;;;;;;;12.05;9.80;;;15.70;99.90;;;;;;5032396;28;20040;-64
2022/10/17 05:03:39;;;;;;;9.98;8.82;;;15.70;99.90;;;;;;5029260;28;20026;-64
2022/10/17 05:06:07;;;;;;;14.18;10.18;;;15.70;99.90;;;;;;5030929;28;20359;-64
2022/10/17 05:08:34;;;;;;;11.18;9.25;;;15.70;99.90;;;;;;5030276;28;20018;-64
2022/10/17 05:10:59;;;;;;;10.35;8.38;;;15.70;99.90;;;;;;5031025;28;20397;-64
2022/10/17 05:13:25;;;;;;;11.40;9.80;;;15.70;99.90;;;;;;5032006;28;20033;-64
2022/10/17 05:15:50;;;;;;;11.45;9.68;;;15.70;99.90;;;;;;5032462;28;20485;-64
2022/10/17 05:18:16;;;;;;;13.43;9.18;;;15.70;99.90;;;;;;5032186;28;20033;-64
2022/10/17 05:20:41;;;;;;;12.05;8.70;;;15.70;99.90;;;;;;5023859;28;20025;-64
2022/10/17 05:23:07;;;;;;;11.00;9.05;;;15.70;99.90;;;;;;5032024;28;20108;-64
2022/10/17 05:25:32;;;;;;;9.80;8.68;;;15.80;99.90;;;;;;5024873;28;20021;-64
2022/10/17 05:27:58;;;;;;;10.93;9.45;;;15.80;99.90;;;;;;5028940;28;20044;-64
2022/10/17 05:30:24;;;;;;;10.02;9.02;;;15.80;99.90;;;;;;5030355;28;20053;-64
2022/10/17 05:32:53;;;;;;;12.80;9.02;;;15.90;99.90;;;;;;5033404;28;20024;-64
2022/10/17 05:35:20;;;;;;;10.00;9.00;;;15.90;99.90;;;;;;5032002;28;20018;-64
2022/10/17 05:37:45;;;;;;;10.88;9.77;;;16.00;99.90;;;;;;5035094;28;20044;-64
2022/10/17 05:40:11;;;;;;;9.40;8.43;;;16.00;99.90;;;;;;5031041;28;20470;-64
2022/10/17 05:42:37;;;;;;;9.98;8.52;;;16.00;99.90;;;;;;5035760;28;20045;-64
2022/10/17 05:45:03;;;;;;;11.07;8.98;;;16.10;99.90;;;;;;5034816;28;20021;-64
2022/10/17 05:47:28;;;;;;;10.50;9.00;;;16.10;99.90;;;;;;5035964;28;20049;-64
2022/10/17 05:49:54;;;;;;;10.13;8.77;;;16.10;99.90;;;;;;5031043;28;20053;-64
2022/10/17 05:52:19;;;;;;;12.27;8.93;;;16.10;99.90;;;;;;5021337;28;20026;-64
2022/10/17 05:54:45;;;;;;;11.77;8.55;;;16.10;99.90;;;;;;5025831;28;20099;-64
2022/10/17 05:57:10;;;;;;;9.80;8.35;;;16.20;99.90;;;;;;5026224;28;20040;-64
2022/10/17 05:59:36;;;;;;;11.20;9.00;;;16.20;99.90;;;;;;5026146;28;20024;-64
2022/10/17 06:02:01;;;;;;;9.15;8.25;;;16.20;99.90;;;;;;5025875;28;20026;-64
2022/10/17 06:04:27;;;;;;;9.43;8.15;;;16.20;99.90;;;;;;5035721;28;20025;-64
2022/10/17 06:06:55;;;;;;;8.88;7.95;;;16.20;99.90;;;;;;5035960;28;20496;-64
2022/10/17 06:09:21;;;;;;;8.95;7.57;;;16.30;99.90;;;;;;5025910;28;20084;-64
2022/10/17 06:11:46;;;;;;;10.63;7.93;;;16.30;99.90;;;;;;5025647;28;20474;-64
2022/10/17 06:14:12;;;;;;;15.85;8.05;;;16.30;99.90;;;;;;5034647;28;20032;-64
2022/10/17 06:16:37;;;;;;;10.20;7.47;;;16.30;99.90;;;;;;5025247;28;20156;-64
2022/10/17 06:19:03;;;;;;;8.90;8.00;;;16.30;99.90;;;;;;5031160;28;20025;-64
2022/10/17 06:21:29;;;;;;;9.27;7.13;;;16.30;99.90;;;;;;5039700;28;20075;-64
2022/10/17 06:23:54;;;;;;;8.95;7.78;;;16.30;99.90;;;;;;5026338;28;20021;-64
2022/10/17 06:26:20;;;;;;;10.98;7.75;;;16.40;99.90;;;;;;5025212;28;20037;-64
2022/10/17 06:28:45;;;;;;;10.10;7.07;;;16.40;99.90;;;;;;5035677;28;20025;-64
2022/10/17 06:31:13;;;;;;;9.88;6.97;;;16.40;99.90;;;;;;5017764;28;20025;-64
2022/10/17 06:33:39;;;;;;;7.82;6.82;;;16.40;99.90;;;;;;5015806;28;20122;-64
2022/10/17 06:36:06;;;;;;;8.05;7.25;;;16.40;99.90;;;;;;5015355;28;20104;-64
2022/10/17 06:38:34;;;;;;;10.77;7.85;;;16.50;99.90;;;;;;5027609;28;20371;-64
2022/10/17 06:41:25;;;;;;;8.35;6.88;;;16.50;99.90;;;;;;5035055;28;20026;-64
2022/10/17 06:43:51;;;;;;;9.15;7.38;;;16.50;99.90;;;;;;5028269;28;20486;-64
2022/10/17 06:46:18;;;;;;;10.60;6.85;;;16.50;99.90;;;;;;5034875;28;20068;-64
2022/10/17 06:48:44;;;;;;;12.40;7.28;;;16.60;99.90;;;;;;5035146;28;20028;-64
2022/10/17 06:51:10;;;;;;;9.90;7.13;;;16.60;99.90;;;;;;5033669;28;20033;-64
2022/10/17 06:53:38;;;;;;;9.45;7.75;;;16.60;99.90;;;;;;5035053;28;20036;-64
2022/10/17 06:56:05;;;;;;;9.38;7.70;;;16.60;99.90;;;;;;5033343;28;20053;-64
2022/10/17 06:58:33;;;;;;;9.02;6.82;;;16.70;99.90;;;;;;5035294;28;20057;-64
2022/10/17 07:01:05;;;;;;;8.68;7.15;;;16.70;99.90;;;;;;5031286;28;20029;-64
2022/10/17 07:03:31;;;;;;;7.30;6.60;;;16.70;99.90;;;;;;5032623;28;20029;-64
2022/10/17 07:05:57;;;;;;;8.52;7.25;;;16.70;99.90;;;;;;5023129;28;20036;-64
2022/10/17 07:08:23;;;;;;;9.90;7.68;;;16.80;99.90;;;;;;5034476;28;20025;-64
2022/10/17 07:10:49;;;;;;;7.65;6.60;;;16.80;99.90;;;;;;5034588;28;20084;-64
2022/10/17 07:13:15;;;;;;;9.75;6.97;;;16.90;99.90;;;;;;5033130;28;20029;-64
2022/10/17 07:15:41;;;;;;;7.50;6.75;;;16.90;99.90;;;;;;5034599;28;20083;-64
2022/10/17 07:18:06;;;;;;;7.50;6.50;;;17.00;99.90;;;;;;5030871;28;20036;-64
2022/10/17 07:20:32;;;;;;;8.23;7.05;;;17.00;99.90;;;;;;5033793;28;20026;-64
2022/10/17 07:22:58;;;;;;;9.32;6.70;;;17.00;99.90;;;;;;5033851;28;20029;-64
2022/10/17 07:25:24;;;;;;;11.50;7.88;;;17.10;99.90;;;;;;5032393;28;20029;-64
2022/10/17 07:27:50;;;;;;;10.30;7.15;;;17.10;99.90;;;;;;5033645;28;20028;-64
2022/10/17 07:30:16;;;;;;;9.07;6.68;;;17.10;99.90;;;;;;5034173;28;20079;-64
2022/10/17 07:32:42;;;;;;;8.10;6.15;;;17.20;99.90;;;;;;5033715;28;20037;-64
2022/10/17 07:35:08;;;;;;;8.88;6.40;;;17.20;99.90;;;;;;5034277;28;20030;-64
2022/10/17 07:37:34;;;;;;;10.38;7.53;;;17.20;99.90;;;;;;5033770;28;20029;-64
2022/10/17 07:40:00;;;;;;;10.35;8.32;;;17.30;99.90;;;;;;5023570;28;20033;-64
2022/10/17 07:42:27;;;;;;;8.60;6.82;;;17.30;99.90;;;;;;5030931;28;20444;-64
2022/10/17 07:44:53;;;;;;;11.30;7.70;;;17.30;99.90;;;;;;5022646;28;20032;-64
2022/10/17 07:47:18;;;;;;;10.05;6.53;;;17.30;99.90;;;;;;5027787;28;20100;-64
2022/10/17 07:49:44;;;;;;;8.45;6.43;;;17.30;99.90;;;;;;5034164;28;20021;-64
2022/10/17 07:52:10;;;;;;;10.40;6.60;;;17.30;99.90;;;;;;5016390;28;20022;-64
2022/10/17 07:54:36;;;;;;;8.65;6.10;;;17.20;99.90;;;;;;5033479;28;20033;-64
2022/10/17 07:57:02;;;;;;;7.38;6.63;;;17.30;99.90;;;;;;5024463;28;20029;-64
2022/10/17 07:59:28;;;;;;;8.55;6.15;;;17.30;99.90;;;;;;5032597;28;20393;-64
2022/10/17 08:01:56;;;;;;;9.35;6.32;;;17.30;99.90;;;;;;5025163;28;20496;-64
2022/10/17 08:04:22;;;;;;;9.57;6.50;;;17.30;99.90;;;;;;5032467;28;20052;-64
2022/10/17 08:06:48;;;;;;;6.88;5.93;;;17.30;99.90;;;;;;5024867;28;20048;-64
2022/10/17 08:09:14;;;;;;;8.85;6.35;;;17.30;99.90;;;;;;5029092;28;20380;-64
2022/10/17 08:11:42;;;;;;;7.07;6.38;;;17.30;99.90;;;;;;5033177;28;20013;-64
2022/10/17 08:14:08;;;;;;;7.78;6.38;;;17.30;99.90;;;;;;5026673;28;20048;-64
2022/10/17 08:16:34;;;;;;;10.40;5.97;;;17.30;99.90;;;;;;5021055;28;20466;-64
2022/10/17 08:18:59;;;;;;;7.25;5.70;;;17.30;99.90;;;;;;5027533;28;20096;-64
2022/10/17 08:21:25;;;;;;;7.18;5.10;;;17.40;99.90;;;;;;5029596;28;20036;-64
2022/10/17 08:23:50;;;;;;;9.27;5.60;;;17.40;99.90;;;;;;5018593;28;20030;-64
2022/10/17 08:26:18;;;;;;;8.38;5.32;;;17.40;99.90;;;;;;5027975;28;20021;-64
2022/10/17 08:28:44;;;;;;;6.32;4.90;;;17.40;99.90;;;;;;5031983;28;20036;-63
2022/10/17 08:31:17;;;;;;;7.63;5.43;;;17.30;99.90;;;;;;5031662;28;20017;-64
2022/10/17 08:33:43;;;;;;;9.00;6.40;;;17.40;99.90;;;;;;5032585;28;20104;-63
2022/10/17 08:36:12;;;;;;;7.97;5.80;;;17.30;99.90;;;;;;5032926;28;20029;-64
2022/10/17 08:38:38;;;;;;;8.25;5.13;;;17.30;99.90;;;;;;5031475;28;20123;-64
2022/10/17 08:41:12;;;;;;;9.13;5.88;;;17.30;99.90;;;;;;5032659;28;20025;-64
2022/10/17 08:43:56;;;;;;;7.40;6.47;;;17.30;99.90;;;;;;5032388;28;20037;-63
2022/10/17 08:46:27;;;;;;;8.13;5.95;;;17.20;99.90;;;;;;5032698;28;20075;-64
2022/10/17 08:48:53;;;;;;;7.72;5.75;;;17.20;99.90;;;;;;5032532;28;20478;-64
2022/10/17 08:51:23;;;;;;;6.50;5.82;;;17.10;99.90;;;;;;5033429;28;20022;-64
2022/10/17 08:54:02;;;;;;;5.75;5.15;;;17.20;99.90;;;;;;5032344;28;20108;-63
2022/10/17 08:56:41;;;;;;;5.85;5.13;;;17.20;99.90;;;;;;5019468;28;20108;-64
2022/10/17 08:59:12;;;;;;;8.68;5.60;;;17.20;99.90;;;;;;5032485;28;20100;-63
2022/10/17 09:01:47;;;;;;;5.80;4.53;;;17.20;99.90;;;;;;5023980;28;20059;-64
2022/10/17 09:04:32;;;;;;;9.35;5.25;;;17.20;99.90;;;;;;5025760;28;20022;-63
2022/10/17 09:07:23;;;;;;;5.07;4.43;;;17.30;99.90;;;;;;5027171;28;20026;-63
2022/10/17 09:10:16;;;;;;;7.40;4.05;;;17.30;99.90;;;;;;5032375;28;20033;-63
2022/10/17 09:13:19;;;;;;;6.88;4.90;;;17.30;99.90;;;;;;5030625;28;20021;-63
2022/10/17 09:16:00;;;;;;;7.30;5.68;;;17.30;99.90;;;;;;5028230;28;20071;-63
2022/10/17 09:18:25;;;;;;;7.13;5.75;;;17.20;99.90;;;;;;5026223;28;20173;-63
2022/10/17 09:20:54;;;;;;;6.75;5.47;;;17.20;99.90;;;;;;5031834;28;20556;-63
2022/10/17 09:23:22;;;;;;;6.95;5.20;;;17.20;99.90;;;;;;5032439;28;20018;-63
2022/10/17 09:25:52;;;;;;;9.05;6.65;;;17.10;99.90;;;;;;5031752;28;20474;-63
2022/10/17 09:28:31;;;;;;;7.68;5.40;;;17.10;99.90;;;;;;5029792;28;20032;-63
2022/10/17 09:31:09;;;;;;;9.32;5.75;;;17.10;99.90;;;;;;5032087;28;20038;-63
2022/10/17 09:33:48;;;;;;;7.97;5.20;;;17.10;99.90;;;;;;5032469;28;20021;-63
2022/10/17 09:36:19;;;;;;;9.13;5.60;;;17.10;99.90;;;;;;5029364;28;20540;-63
2022/10/17 09:38:51;;;;;;;6.07;5.38;;;17.10;99.90;;;;;;5028616;28;20025;-63
2022/10/17 09:41:20;;;;;;;8.43;5.63;;;17.10;99.90;;;;;;5031388;28;20038;-63
2022/10/17 09:43:46;;;;;;;7.15;5.13;;;17.10;99.90;;;;;;5023831;28;20052;-63
2022/10/17 09:46:36;;;;;;;9.23;6.05;;;17.10;99.90;;;;;;5019137;28;20045;-63
2022/10/17 09:49:19;;;;;;;8.13;6.35;;;17.10;99.90;;;;;;5029373;28;20033;-61
2022/10/17 09:51:46;;;;;;;8.68;6.57;;;17.00;99.90;;;;;;5012870;28;20076;-61
2022/10/17 09:54:31;;;;;;;7.38;5.75;;;16.90;99.90;;;;;;5029558;28;20037;-61
2022/10/17 09:57:05;;;;;;;7.22;6.47;;;17.00;99.90;;;;;;5031902;28;20637;-61
2022/10/17 09:59:34;;;;;;;7.82;6.47;;;17.00;99.90;;;;;;5032146;28;20030;-63
2022/10/17 10:02:12;;;;;;;10.20;6.32;;;16.90;99.90;;;;;;5030906;28;20108;-63
2022/10/17 10:04:50;;;;;;;6.70;5.95;;;17.00;99.90;;;;;;5043793;28;20040;-63
2022/10/17 10:07:18;;;;;;;8.40;6.55;;;17.00;99.90;;;;;;5044606;28;20025;-63
2022/10/17 10:09:46;;;;;;;9.90;6.25;;;17.00;99.90;;;;;;5028703;28;20474;-63
2022/10/17 10:12:17;;;;;;;7.22;6.32;;;16.90;99.90;;;;;;5033970;28;20099;-63
2022/10/17 10:14:42;;;;;;;10.43;7.10;;;17.00;99.90;;;;;;5031257;28;20495;-63
2022/10/17 10:17:27;;;;;;;7.97;7.18;;;16.90;99.90;;;;;;5032682;28;20025;-63
2022/10/17 10:19:53;;;;;;;8.25;6.35;;;17.00;99.90;;;;;;5036384;28;20485;-63
2022/10/17 10:22:22;;;;;;;7.22;6.53;;;16.90;99.90;;;;;;5041247;28;20036;-63
2022/10/17 10:25:15;;;;;;;8.50;6.88;;;16.90;99.90;;;;;;5036625;28;20481;-63
2022/10/17 10:27:42;;;;;;;8.70;6.07;;;16.90;99.90;;;;;;5030324;28;20156;-63
2022/10/17 10:30:25;;;;;;;7.18;6.32;;;16.90;99.90;;;;;;5047177;28;20056;-63
2022/10/17 10:32:50;;;;;;;10.57;6.15;;;16.90;99.90;;;;;;5040191;28;20018;-63
2022/10/17 10:35:24;;;;;;;7.88;5.80;;;16.90;99.90;;;;;;5035026;28;20440;-63
2022/10/17 10:37:56;;;;;;;6.95;5.53;;;17.00;99.90;;;;;;5035470;28;20397;-63
2022/10/17 10:40:24;;;;;;;9.02;5.53;;;17.00;99.90;;;;;;5038097;28;20025;-63
2022/10/17 10:42:57;;;;;;;7.32;6.00;;;17.00;99.90;;;;;;5034928;28;20052;-63
2022/10/17 10:45:27;;;;;;;10.07;6.68;;;17.00;99.90;;;;;;5041677;28;20028;-63
2022/10/17 10:47:58;;;;;;;9.60;8.05;;;17.10;99.90;;;;;;5030707;28;20086;-63
2022/10/17 10:50:39;;;;;;;10.00;7.80;;;17.10;99.90;;;;;;5033395;28;20025;-63
2022/10/17 10:53:26;;;;;;;8.73;7.93;;;17.10;99.90;;;;;;5026414;28;20029;-63
2022/10/17 10:55:59;;;;;;;9.02;8.23;;;17.20;99.90;;;;;;5032584;28;20024;-63
2022/10/17 10:58:52;;;;;;;12.07;8.25;;;17.10;99.90;;;;;;5033131;28;20359;-63
2022/10/17 11:01:34;;;;;;;12.30;9.15;;;17.20;99.90;;;;;;5032513;28;20021;-63
2022/10/17 11:04:45;;;;;;;10.60;8.38;;;17.20;99.90;;;;;;5032604;28;20017;-63
2022/10/17 11:07:22;;;;;;;8.48;7.57;;;17.20;99.90;;;;;;5031542;28;20025;-63
2022/10/17 11:10:02;;;;;;;8.38;7.47;;;17.20;99.90;;;;;;5032500;28;20026;-63
2022/10/17 11:12:44;;;;;;;7.75;6.85;;;17.30;99.90;;;;;;5031434;28;20051;-63
2022/10/17 11:15:35;;;;;;;7.35;6.65;;;17.30;99.90;;;;;;5034018;28;20022;-63
2022/10/17 11:18:27;;;;;;;10.07;7.93;;;17.40;99.90;;;;;;5029455;28;20487;-63
2022/10/17 11:21:04;;;;;;;8.32;7.53;;;17.40;99.90;;;;;;5032531;28;20049;-63
2022/10/17 11:23:47;;;;;;;7.47;6.75;;;17.40;99.90;;;;;;5031149;28;20097;-63
2022/10/17 11:26:25;;;;;;;9.48;7.70;;;17.40;99.90;;;;;;5026592;28;20022;-63
2022/10/17 11:28:55;;;;;;;10.63;7.25;;;17.40;99.90;;;;;;5034673;28;20029;-63
2022/10/17 11:31:27;;;;;;;10.60;7.43;;;17.50;99.90;;;;;;5037558;28;20029;-63
2022/10/17 11:33:59;;;;;;;11.50;6.95;;;17.50;99.90;;;;;;5048457;28;20033;-63
2022/10/17 11:36:34;;;;;;;7.13;6.18;;;17.50;99.90;;;;;;5039355;28;20034;-63
2022/10/17 11:39:19;;;;;;;8.38;6.50;;;17.50;99.90;;;;;;5035581;28;20105;-64
2022/10/17 11:42:05;;;;;;;9.70;6.55;;;17.60;99.90;;;;;;5033297;28;20505;-63
2022/10/17 11:44:36;;;;;;;7.60;6.90;;;17.60;99.90;;;;;;5030964;28;20029;-63
2022/10/17 11:47:20;;;;;;;9.48;7.22;;;17.60;99.90;;;;;;5032068;28;20550;-63
2022/10/17 11:50:15;;;;;;;6.93;6.00;;;17.50;99.90;;;;;;5020539;28;20029;-63
2022/10/17 11:53:02;;;;;;;7.07;5.82;;;17.60;99.90;;;;;;5044534;28;20064;-63
2022/10/17 11:55:30;;;;;;;8.40;6.55;;;17.60;99.90;;;;;;5033661;28;20033;-63
2022/10/17 11:58:01;;;;;;;6.13;5.53;;;17.60;99.90;;;;;;5033718;28;20018;-63
2022/10/17 12:00:33;;;;;;;8.00;6.05;;;17.60;99.90;;;;;;5032501;28;20510;-63
2022/10/17 12:03:23;;;;;;;8.90;7.43;;;17.60;99.90;;;;;;5033471;28;20030;-63
2022/10/17 12:06:02;;;;;;;7.18;6.32;;;17.60;99.90;;;;;;5019851;28;20093;-64
2022/10/17 12:08:48;;;;;;;7.00;6.30;;;17.60;99.90;;;;;;5032337;28;20112;-63
2022/10/17 12:11:19;;;;;;;10.25;7.13;;;17.70;99.90;;;;;;5033435;28;20033;-63
2022/10/17 12:13:50;;;;;;;7.85;7.00;;;17.70;99.90;;;;;;5034065;28;20470;-63
2022/10/17 12:16:19;;;;;;;7.30;6.57;;;17.70;99.90;;;;;;5038479;28;20067;-63
2022/10/17 12:18:59;;;;;;;7.75;6.55;;;17.70;99.90;;;;;;5032152;28;20021;-63
2022/10/17 12:21:25;;;;;;;8.52;6.57;;;17.70;99.90;;;;;;5029863;28;20025;-63
2022/10/17 12:23:53;;;;;;;10.00;7.40;;;17.70;99.90;;;;;;5037929;28;20499;-63
2022/10/17 12:26:27;;;;;;;8.00;7.20;;;17.70;99.90;;;;;;5029987;28;20049;-63
2022/10/17 12:28:53;;;;;;;7.03;6.43;;;17.70;99.90;;;;;;5034728;28;20029;-63
2022/10/17 12:31:20;;;;;;;8.32;7.15;;;17.70;99.90;;;;;;5037708;28;20055;-63
2022/10/17 12:33:51;;;;;;;8.05;6.47;;;17.70;99.90;;;;;;5049017;28;20519;-63
2022/10/17 12:36:25;;;;;;;6.78;6.07;;;17.70;99.90;;;;;;5038871;28;20250;-63
2022/10/17 12:39:13;;;;;;;7.45;5.65;;;17.80;99.90;;;;;;5034245;28;20021;-63
2022/10/17 12:41:38;;;;;;;7.05;6.35;;;17.80;99.90;;;;;;5039676;28;20021;-62
2022/10/17 12:44:13;;;;;;;6.90;5.95;;;17.80;99.90;;;;;;5032654;28;20033;-63
2022/10/17 12:46:57;;;;;;;7.18;5.97;;;17.90;99.90;;;;;;5040556;28;20041;-63
2022/10/17 12:49:42;;;;;;;6.85;6.15;;;17.90;99.90;;;;;;5031188;28;20478;-63
2022/10/17 12:52:46;;;;;;;7.53;5.78;;;17.90;99.90;;;;;;5032035;28;20037;-63
2022/10/17 12:55:32;;;;;;;7.35;6.65;;;18.00;99.90;;;;;;5031166;28;20040;-63
2022/10/17 12:58:03;;;;;;;8.38;6.18;;;18.00;99.90;;;;;;5028257;28;20042;-63
2022/10/17 13:00:49;;;;;;;7.65;6.07;;;18.00;99.90;;;;;;5027036;28;20021;-63